createdAt,value
2022-09-15T00:02:25.040Z,100762.81
2022-09-15T00:04:51.622Z,100766.00
2022-09-15T00:07:18.032Z,100768.81
2022-09-15T00:09:44.448Z,100758.72
2022-09-15T00:12:10.977Z,100767.31
2022-09-15T00:14:37.393Z,100762.66
2022-09-15T00:17:03.943Z,100762.72
2022-09-15T00:19:30.413Z,100768.97
2022-09-15T00:21:56.825Z,100761.53
2022-09-15T00:24:23.278Z,100759.59
2022-09-15T00:26:49.699Z,100762.72
2022-09-15T00:29:16.117Z,100756.84
2022-09-15T00:31:42.570Z,100763.94
2022-09-15T00:34:12.350Z,100758.03
2022-09-15T00:36:38.860Z,100758.41
2022-09-15T00:39:05.699Z,100748.25
2022-09-15T00:41:32.350Z,100756.00
2022-09-15T00:44:05.923Z,100758.31
2022-09-15T00:46:38.957Z,100754.75
2022-09-15T00:49:29.537Z,100753.59
2022-09-15T00:52:00.626Z,100761.38
2022-09-15T00:54:36.747Z,100760.63
2022-09-15T00:57:09.673Z,100763.41
2022-09-15T00:59:38.815Z,100756.41
2022-09-15T01:02:30.517Z,100756.41
2022-09-15T01:05:00.038Z,100757.19
2022-09-15T01:07:40.541Z,100752.50
2022-09-15T01:10:28.725Z,100754.78
2022-09-15T01:12:58.917Z,100752.06
2022-09-15T01:15:45.774Z,100755.22
2022-09-15T01:18:33.939Z,100758.69
2022-09-15T01:21:21.017Z,100759.06
2022-09-15T01:23:59.222Z,100766.84
2022-09-15T01:26:46.544Z,100768.75
2022-09-15T01:29:49.784Z,100765.94
2022-09-15T01:32:58.164Z,100758.50
2022-09-15T01:35:36.663Z,100758.09
2022-09-15T01:38:15.805Z,100754.59
2022-09-15T01:40:51.039Z,100755.00
2022-09-15T01:43:20.918Z,100752.25
2022-09-15T01:45:50.040Z,100758.50
2022-09-15T01:48:21.167Z,100763.19
2022-09-15T01:50:51.591Z,100769.81
2022-09-15T01:53:21.721Z,100768.97
2022-09-15T01:56:11.189Z,100780.22
2022-09-15T01:58:39.623Z,100774.31
2022-09-15T02:01:08.669Z,100769.25
2022-09-15T02:03:44.954Z,100771.31
2022-09-15T02:06:21.701Z,100762.72
2022-09-15T02:09:02.643Z,100763.94
2022-09-15T02:11:30.344Z,100755.31
2022-09-15T02:14:17.324Z,100761.16
2022-09-15T02:16:48.776Z,100766.16
2022-09-15T02:19:35.906Z,100767.00
2022-09-15T02:22:17.667Z,100763.88
2022-09-15T02:24:50.033Z,100767.41
2022-09-15T02:27:24.142Z,100764.25
2022-09-15T02:29:53.843Z,100764.59
2022-09-15T02:32:24.098Z,100768.88
2022-09-15T02:34:54.539Z,100770.84
2022-09-15T02:37:23.010Z,100771.63
2022-09-15T02:39:58.010Z,100762.97
2022-09-15T02:42:31.650Z,100766.84
2022-09-15T02:44:59.430Z,100765.22
2022-09-15T02:47:28.245Z,100774.66
2022-09-15T02:49:55.532Z,100776.22
2022-09-15T02:52:21.971Z,100777.78
2022-09-15T02:54:48.986Z,100771.66
2022-09-15T02:57:15.505Z,100770.94
2022-09-15T03:00:00.485Z,100774.13
2022-09-15T03:02:27.374Z,100776.06
2022-09-15T03:04:53.792Z,100781.84
2022-09-15T03:07:20.455Z,100773.25
2022-09-15T03:09:47.214Z,100774.44
2022-09-15T03:12:13.775Z,100779.91
2022-09-15T03:14:40.170Z,100772.88
2022-09-15T03:17:06.614Z,100773.25
2022-09-15T03:19:33.051Z,100777.06
2022-09-15T03:21:59.453Z,100781.00
2022-09-15T03:24:25.873Z,100778.69
2022-09-15T03:26:52.302Z,100786.53
2022-09-15T03:29:18.753Z,100786.91
2022-09-15T03:31:45.199Z,100784.59
2022-09-15T03:34:11.694Z,100794.69
2022-09-15T03:36:38.245Z,100792.38
2022-09-15T03:39:04.828Z,100792.03
2022-09-15T03:41:31.238Z,100792.03
2022-09-15T03:43:57.790Z,100789.66
2022-09-15T03:46:24.290Z,100798.66
2022-09-15T03:48:50.735Z,100792.84
2022-09-15T03:51:17.123Z,100791.34
2022-09-15T03:53:43.784Z,100789.44
2022-09-15T03:56:14.075Z,100786.31
2022-09-15T03:58:40.693Z,100799.25
2022-09-15T04:01:07.425Z,100799.25
2022-09-15T04:03:36.515Z,100802.78
2022-09-15T04:06:05.521Z,100799.56
2022-09-15T04:08:31.984Z,100796.38
2022-09-15T04:11:00.332Z,100796.78
2022-09-15T04:13:28.806Z,100787.41
2022-09-15T04:16:03.648Z,100793.22
2022-09-15T04:18:30.306Z,100782.72
2022-09-15T04:21:01.627Z,100790.50
2022-09-15T04:23:28.318Z,100778.81
2022-09-15T04:25:59.695Z,100781.94
2022-09-15T04:28:26.932Z,100787.38
2022-09-15T04:30:54.506Z,100788.63
2022-09-15T04:33:21.022Z,100783.09
2022-09-15T04:35:48.208Z,100791.28
2022-09-15T04:38:14.713Z,100796.00
2022-09-15T04:40:41.125Z,100796.38
2022-09-15T04:43:07.953Z,100787.69
2022-09-15T04:45:34.379Z,100779.09
2022-09-15T04:48:00.875Z,100781.06
2022-09-15T04:50:27.342Z,100790.78
2022-09-15T04:52:53.803Z,100785.34
2022-09-15T04:55:20.251Z,100791.59
2022-09-15T04:57:46.634Z,100785.00
2022-09-15T05:00:13.607Z,100786.22
2022-09-15T05:02:40.388Z,100790.91
2022-09-15T05:05:07.014Z,100791.75
2022-09-15T05:07:33.458Z,100798.78
2022-09-15T05:09:59.852Z,100797.22
2022-09-15T05:12:26.269Z,100792.16
2022-09-15T05:14:52.682Z,100790.66
2022-09-15T05:17:19.287Z,100794.13
2022-09-15T05:19:46.331Z,100796.06
2022-09-15T05:22:12.753Z,100789.44
2022-09-15T05:24:39.133Z,100782.41
2022-09-15T05:27:05.800Z,100784.75
2022-09-15T05:29:32.220Z,100787.53
2022-09-15T05:31:58.642Z,100793.00
2022-09-15T05:34:25.059Z,100798.47
2022-09-15T05:36:51.589Z,100794.19
2022-09-15T05:39:18.273Z,100802.75
2022-09-15T05:41:44.792Z,100801.59
2022-09-15T05:44:11.484Z,100793.00
2022-09-15T05:46:37.953Z,100800.75
2022-09-15T05:49:04.612Z,100800.34
2022-09-15T05:51:31.118Z,100792.47
2022-09-15T05:53:57.573Z,100799.88
2022-09-15T05:56:24.285Z,100804.94
2022-09-15T05:58:50.732Z,100803.41
2022-09-15T06:01:19.841Z,100805.34
2022-09-15T06:03:47.318Z,100808.13
2022-09-15T06:06:14.093Z,100811.25
2022-09-15T06:08:52.844Z,100808.56
2022-09-15T06:11:27.965Z,100811.81
2022-09-15T06:13:54.641Z,100813.47
2022-09-15T06:16:23.717Z,100815.09
2022-09-15T06:18:52.306Z,100828.03
2022-09-15T06:21:24.985Z,100825.31
2022-09-15T06:24:03.546Z,100826.94
2022-09-15T06:26:30.505Z,100823.81
2022-09-15T06:29:01.581Z,100839.09
2022-09-15T06:31:31.384Z,100836.38
2022-09-15T06:33:59.295Z,100841.84
2022-09-15T06:36:28.466Z,100851.59
2022-09-15T06:38:55.909Z,100846.47
2022-09-15T06:41:22.446Z,100851.09
2022-09-15T06:43:49.393Z,100847.91
2022-09-15T06:46:19.508Z,100860.03
2022-09-15T06:48:48.474Z,100851.88
2022-09-15T06:51:17.165Z,100857.72
2022-09-15T06:53:44.242Z,100862.09
2022-09-15T06:56:19.479Z,100863.72
2022-09-15T06:58:48.810Z,100865.72
2022-09-15T07:01:22.363Z,100854.03
2022-09-15T07:03:49.162Z,100859.91
2022-09-15T07:06:16.301Z,100866.19
2022-09-15T07:08:43.405Z,100863.13
2022-09-15T07:11:10.737Z,100868.25
2022-09-15T07:13:38.035Z,100872.97
2022-09-15T07:16:06.487Z,100873.34
2022-09-15T07:18:33.478Z,100875.75
2022-09-15T07:21:02.138Z,100876.16
2022-09-15T07:23:29.357Z,100875.03
2022-09-15T07:26:15.111Z,100871.16
2022-09-15T07:28:43.816Z,100878.59
2022-09-15T07:31:13.361Z,100878.94
2022-09-15T07:33:39.861Z,100879.72
2022-09-15T07:36:08.354Z,100886.44
2022-09-15T07:38:38.516Z,100893.13
2022-09-15T07:41:29.301Z,100892.00
2022-09-15T07:43:58.462Z,100899.00
2022-09-15T07:46:27.246Z,100899.38
2022-09-15T07:48:57.768Z,100903.28
2022-09-15T07:51:25.526Z,100915.03
2022-09-15T07:53:52.892Z,100924.47
2022-09-15T07:56:19.678Z,100929.16
2022-09-15T07:58:47.511Z,100928.38
2022-09-15T08:01:15.173Z,100922.16
2022-09-15T08:03:43.575Z,100925.69
2022-09-15T08:06:10.973Z,100930.41
2022-09-15T08:08:38.843Z,100921.00
2022-09-15T08:11:09.924Z,100928.47
2022-09-15T08:13:37.316Z,100930.03
2022-09-15T08:16:23.767Z,100930.44
2022-09-15T08:18:52.456Z,100933.59
2022-09-15T08:21:20.651Z,100935.94
2022-09-15T08:23:55.960Z,100938.63
2022-09-15T08:26:23.118Z,100940.25
2022-09-15T08:28:49.608Z,100945.03
2022-09-15T08:31:16.857Z,100936.09
2022-09-15T08:33:48.629Z,100945.09
2022-09-15T08:36:15.143Z,100940.00
2022-09-15T08:38:47.003Z,100958.03
2022-09-15T08:41:27.867Z,100953.31
2022-09-15T08:44:04.616Z,100956.44
2022-09-15T08:46:39.162Z,100958.88
2022-09-15T08:49:13.137Z,100958.47
2022-09-15T08:51:49.691Z,100963.97
2022-09-15T08:54:22.857Z,100969.47
2022-09-15T08:56:50.142Z,100976.56
2022-09-15T08:59:18.221Z,100979.63
2022-09-15T09:02:07.329Z,100984.72
2022-09-15T09:05:03.811Z,100983.88
2022-09-15T09:07:57.897Z,100990.53
2022-09-15T09:10:52.037Z,100984.59
2022-09-15T09:13:38.857Z,100992.81
2022-09-15T09:16:27.089Z,100999.34
2022-09-15T09:19:30.048Z,101001.28
2022-09-15T09:22:09.343Z,101005.88
2022-09-15T09:24:45.002Z,100998.09
2022-09-15T09:27:14.939Z,100994.56
2022-09-15T09:29:50.957Z,100985.16
2022-09-15T09:32:34.003Z,100986.31
2022-09-15T09:35:17.282Z,100998.94
2022-09-15T09:37:44.218Z,100996.72
2022-09-15T09:40:15.738Z,100988.50
2022-09-15T09:42:43.825Z,100983.47
2022-09-15T09:45:15.619Z,100987.41
2022-09-15T09:47:42.807Z,100983.53
2022-09-15T09:50:43.579Z,100985.13
2022-09-15T09:53:33.485Z,100982.81
2022-09-15T09:56:24.606Z,100987.53
2022-09-15T09:58:52.075Z,100990.69
2022-09-15T10:01:21.318Z,100985.19
2022-09-15T10:03:47.895Z,100993.06
2022-09-15T10:06:23.250Z,100988.34
2022-09-15T10:08:59.097Z,100989.53
2022-09-15T10:11:45.196Z,100983.66
2022-09-15T10:14:38.456Z,100985.22
2022-09-15T10:17:12.950Z,100979.38
2022-09-15T10:19:52.790Z,100980.16
2022-09-15T10:22:34.759Z,100980.56
2022-09-15T10:25:04.587Z,100973.88
2022-09-15T10:27:31.024Z,100973.94
2022-09-15T10:30:18.927Z,100970.81
2022-09-15T10:32:45.325Z,100957.47
2022-09-15T10:35:18.653Z,100955.53
2022-09-15T10:38:03.615Z,100956.31
2022-09-15T10:41:03.396Z,100958.25
2022-09-15T10:43:38.806Z,100950.78
2022-09-15T10:46:13.658Z,100949.25
2022-09-15T10:48:40.085Z,100952.38
2022-09-15T10:51:31.468Z,100953.16
2022-09-15T10:54:37.035Z,100946.44
2022-09-15T10:57:34.992Z,100955.88
2022-09-15T11:00:24.107Z,100957.03
2022-09-15T11:03:32.055Z,100960.19
2022-09-15T11:06:28.689Z,100947.19
2022-09-15T11:09:13.484Z,100949.91
2022-09-15T11:12:09.271Z,100955.44
2022-09-15T11:14:38.614Z,100952.25
2022-09-15T11:17:42.666Z,100955.41
2022-09-15T11:20:21.222Z,100949.09
2022-09-15T11:23:13.512Z,100950.28
2022-09-15T11:25:48.362Z,100948.69
2022-09-15T11:28:51.117Z,100951.88
2022-09-15T11:31:24.286Z,100951.88
2022-09-15T11:33:59.703Z,100949.16
2022-09-15T11:36:32.190Z,100953.47
2022-09-15T11:39:16.614Z,100953.47
2022-09-15T11:41:49.683Z,100957.41
2022-09-15T11:44:32.495Z,100952.22
2022-09-15T11:47:04.761Z,100945.53
2022-09-15T11:49:49.537Z,100951.38
2022-09-15T11:52:55.089Z,100947.44
2022-09-15T11:55:32.019Z,100938.38
2022-09-15T11:58:21.783Z,100942.31
2022-09-15T12:01:03.385Z,100947.91
2022-09-15T12:03:37.235Z,100944.03
2022-09-15T12:06:10.881Z,100944.00
2022-09-15T12:08:44.147Z,100943.63
2022-09-15T12:11:22.111Z,100942.84
2022-09-15T12:13:49.322Z,100945.16
2022-09-15T12:16:17.089Z,100933.41
2022-09-15T12:18:50.227Z,100932.59
2022-09-15T12:21:33.944Z,100925.50
2022-09-15T12:24:11.112Z,100943.56
2022-09-15T12:26:38.431Z,100937.19
2022-09-15T12:29:27.348Z,100930.50
2022-09-15T12:32:20.093Z,100943.84
2022-09-15T12:35:25.127Z,100939.47
2022-09-15T12:37:56.999Z,100935.88
2022-09-15T12:40:37.588Z,100935.50
2022-09-15T12:43:19.310Z,100937.47
2022-09-15T12:45:59.812Z,100932.78
2022-09-15T12:48:32.401Z,100944.63
2022-09-15T12:51:09.417Z,100951.75
2022-09-15T12:53:52.971Z,100959.59
2022-09-15T12:56:25.512Z,100946.38
2022-09-15T12:58:53.506Z,100948.31
2022-09-15T13:01:23.052Z,100955.00
2022-09-15T13:03:49.578Z,100960.94
2022-09-15T13:06:25.263Z,100969.56
2022-09-15T13:09:06.596Z,100990.00
2022-09-15T13:11:45.954Z,100975.47
2022-09-15T13:14:33.080Z,100971.56
2022-09-15T13:17:07.089Z,100974.31
2022-09-15T13:19:33.530Z,100982.56
2022-09-15T13:22:11.947Z,100983.34
2022-09-15T13:24:50.773Z,100984.13
2022-09-15T13:27:21.489Z,100980.59
2022-09-15T13:30:00.545Z,100987.28
2022-09-15T13:32:46.483Z,100995.88
2022-09-15T13:35:33.601Z,100991.19
2022-09-15T13:38:32.072Z,100988.47
2022-09-15T13:41:20.808Z,100988.47
2022-09-15T13:44:06.093Z,100985.34
2022-09-15T13:46:35.642Z,100989.63
2022-09-15T13:49:11.129Z,101000.22
2022-09-15T13:51:41.321Z,100988.44
2022-09-15T13:54:16.622Z,100990.03
2022-09-15T13:56:43.974Z,100978.28
2022-09-15T13:59:19.654Z,100980.63
2022-09-15T14:01:46.588Z,100982.56
2022-09-15T14:04:24.338Z,100981.38
2022-09-15T14:06:57.155Z,100980.63
2022-09-15T14:09:29.731Z,100981.81
2022-09-15T14:11:59.349Z,100977.47
2022-09-15T14:14:35.119Z,100986.47
2022-09-15T14:17:01.734Z,100977.84
2022-09-15T14:19:34.070Z,100979.81
2022-09-15T14:22:03.341Z,100982.16
2022-09-15T14:24:31.396Z,100984.91
2022-09-15T14:27:08.493Z,100977.06
2022-09-15T14:29:42.726Z,100986.50
2022-09-15T14:32:14.966Z,100991.59
2022-09-15T14:34:42.233Z,100981.00
2022-09-15T14:37:17.561Z,100988.84
2022-09-15T14:39:52.659Z,100980.97
2022-09-15T14:42:22.831Z,100989.22
2022-09-15T14:47:39.257Z,100986.06
2022-09-15T14:50:19.657Z,100986.88
2022-09-15T14:53:10.016Z,100991.59
2022-09-15T14:55:47.796Z,101002.56
2022-09-15T14:58:21.774Z,101000.22
2022-09-15T15:01:15.634Z,101008.84
2022-09-15T15:04:10.248Z,101004.53
2022-09-15T15:06:42.784Z,100992.00
2022-09-15T15:09:09.172Z,100990.41
2022-09-15T15:11:38.333Z,100991.22
2022-09-15T15:14:08.201Z,100999.44
2022-09-15T15:16:34.864Z,101001.03
2022-09-15T15:19:01.876Z,100996.31
2022-09-15T15:21:40.422Z,100996.31
2022-09-15T15:24:12.607Z,101004.56
2022-09-15T15:26:44.423Z,101004.94
2022-09-15T15:29:39.684Z,101000.22
2022-09-15T15:32:17.230Z,100992.75
2022-09-15T15:34:55.867Z,100988.84
2022-09-15T15:37:34.560Z,100996.28
2022-09-15T15:40:05.556Z,100995.91
2022-09-15T15:42:32.302Z,101000.22
2022-09-15T15:45:22.698Z,101003.75
2022-09-15T15:47:49.178Z,101008.47
2022-09-15T15:50:22.289Z,101006.50
2022-09-15T15:52:49.502Z,101008.84
2022-09-15T15:55:24.402Z,101006.09
2022-09-15T15:57:55.888Z,100993.56
2022-09-15T16:00:30.441Z,101003.75
2022-09-15T16:02:57.069Z,101006.91
2022-09-15T16:05:29.127Z,101005.31
2022-09-15T16:07:59.215Z,101012.38
2022-09-15T16:10:30.038Z,101001.00
2022-09-15T16:12:56.562Z,101004.94
2022-09-15T16:15:23.263Z,101009.25
2022-09-15T16:17:49.945Z,101010.41
2022-09-15T16:20:17.257Z,101011.59
2022-09-15T16:22:44.115Z,101014.31
2022-09-15T16:25:34.073Z,101007.22
2022-09-15T16:28:00.728Z,101010.72
2022-09-15T16:30:27.703Z,101003.66
2022-09-15T16:32:54.945Z,101007.59
2022-09-15T16:35:31.533Z,101020.53
2022-09-15T16:37:58.043Z,101020.13
2022-09-15T16:40:24.630Z,101017.31
2022-09-15T16:42:51.153Z,101023.22
2022-09-15T16:45:24.275Z,101023.97
2022-09-15T16:47:50.939Z,101048.22
2022-09-15T16:50:17.955Z,101028.91
2022-09-15T16:52:44.605Z,101039.44
2022-09-15T16:55:42.672Z,101042.13
2022-09-15T16:58:09.127Z,101037.00
2022-09-15T17:00:37.426Z,101039.34
2022-09-15T17:03:05.022Z,101036.94
2022-09-15T17:05:49.703Z,101034.66
2022-09-15T17:08:18.287Z,101032.28
2022-09-15T17:10:45.496Z,101037.78
2022-09-15T17:13:18.822Z,101040.13
2022-09-15T17:15:46.169Z,101036.50
2022-09-15T17:18:15.330Z,101036.13
2022-09-15T17:20:43.741Z,101032.44
2022-09-15T17:23:25.483Z,101031.88
2022-09-15T17:25:58.424Z,101032.59
2022-09-15T17:28:28.823Z,101041.88
2022-09-15T17:31:11.186Z,101036.25
2022-09-15T17:33:38.009Z,101040.88
2022-09-15T17:36:04.865Z,101038.84
2022-09-15T17:38:31.951Z,101035.94
2022-09-15T17:40:58.718Z,101050.34
2022-09-15T17:43:27.602Z,101044.00
2022-09-15T17:45:54.977Z,101052.59
2022-09-15T17:48:22.762Z,101048.22
2022-09-15T17:50:49.266Z,101046.66
2022-09-15T17:53:18.594Z,101046.25
2022-09-15T17:55:45.123Z,101046.97
2022-09-15T17:58:11.632Z,101047.34
2022-09-15T18:00:40.130Z,101054.31
2022-09-15T18:03:31.133Z,101057.44
2022-09-15T18:05:59.533Z,101061.31
2022-09-15T18:08:27.494Z,101053.44
2022-09-15T18:10:54.045Z,101054.22
2022-09-15T18:13:23.561Z,101064.34
2022-09-15T18:15:50.644Z,101069.84
2022-09-15T18:18:20.793Z,101063.63
2022-09-15T18:20:49.457Z,101066.03
2022-09-15T18:23:21.345Z,101079.34
2022-09-15T18:25:48.986Z,101086.25
2022-09-15T18:28:16.696Z,101093.03
2022-09-15T18:30:45.644Z,101100.53
2022-09-15T18:33:17.435Z,101099.56
2022-09-15T18:35:44.488Z,101099.28
2022-09-15T18:38:11.796Z,101113.75
2022-09-15T18:40:38.546Z,101111.31
2022-09-15T18:43:05.518Z,101120.28
2022-09-15T18:45:31.969Z,101114.19
2022-09-15T18:47:58.395Z,101111.69
2022-09-15T18:50:25.539Z,101093.97
2022-09-15T18:52:53.009Z,101105.59
2022-09-15T18:55:21.950Z,101104.75
2022-09-15T18:57:49.297Z,101114.31
2022-09-15T19:00:19.213Z,101115.31
2022-09-15T19:02:46.462Z,101113.78
2022-09-15T19:05:16.475Z,101105.78
2022-09-15T19:07:44.357Z,101102.75
2022-09-15T19:10:12.877Z,101106.81
2022-09-15T19:12:39.563Z,101099.16
2022-09-15T19:15:10.871Z,101099.66
2022-09-15T19:17:39.232Z,101103.16
2022-09-15T19:20:08.220Z,101109.13
2022-09-15T19:22:35.304Z,101109.75
2022-09-15T19:25:01.782Z,101104.88
2022-09-15T19:27:28.349Z,101116.56
2022-09-15T19:29:54.807Z,101110.06
2022-09-15T19:32:22.138Z,101124.91
2022-09-15T19:34:49.018Z,101120.69
2022-09-15T19:37:18.815Z,101107.91
2022-09-15T19:39:46.213Z,101110.69
2022-09-15T19:42:13.413Z,101127.78
2022-09-15T19:44:41.530Z,101126.78
2022-09-15T19:47:08.754Z,101125.47
2022-09-15T19:49:35.382Z,101123.19
2022-09-15T19:52:01.858Z,101140.41
2022-09-15T19:54:29.655Z,101129.56
2022-09-15T19:56:56.466Z,101130.66
2022-09-15T19:59:27.403Z,101133.59
2022-09-15T20:01:56.798Z,101127.38
2022-09-15T20:04:23.357Z,101142.47
2022-09-15T20:06:49.837Z,101135.19
2022-09-15T20:09:16.277Z,101136.81
2022-09-15T20:11:42.882Z,101140.41
2022-09-15T20:14:09.348Z,101138.06
2022-09-15T20:16:35.884Z,101129.34
2022-09-15T20:19:04.838Z,101124.97
2022-09-15T20:21:51.046Z,101119.47
2022-09-15T20:24:18.227Z,101126.56
2022-09-15T20:26:44.780Z,101119.25
2022-09-15T20:29:11.557Z,101126.63
2022-09-15T20:31:38.490Z,101132.88
2022-09-15T20:34:05.262Z,101137.59
2022-09-15T20:36:35.479Z,101137.59
2022-09-15T20:39:03.442Z,101137.59
2022-09-15T20:41:32.075Z,101137.69
2022-09-15T20:43:59.074Z,101137.75
2022-09-15T20:46:26.063Z,101141.19
2022-09-15T20:48:52.979Z,101144.28
2022-09-15T20:51:22.738Z,101144.50
2022-09-15T20:53:51.869Z,101143.13
2022-09-15T20:56:24.667Z,101140.47
2022-09-15T20:58:55.942Z,101144.50
2022-09-15T21:01:25.143Z,101141.84
2022-09-15T21:03:51.834Z,101141.78
2022-09-15T21:06:20.564Z,101148.66
2022-09-15T21:08:48.047Z,101143.63
2022-09-15T21:11:15.849Z,101149.44
2022-09-15T21:13:43.627Z,101147.88
2022-09-15T21:16:14.585Z,101149.81
2022-09-15T21:18:42.854Z,101152.16
2022-09-15T21:21:15.466Z,101143.13
2022-09-15T21:23:44.324Z,101154.38
2022-09-15T21:26:16.103Z,101141.84
2022-09-15T21:28:45.811Z,101149.78
2022-09-15T21:31:20.894Z,101148.69
2022-09-15T21:33:48.110Z,101148.34
2022-09-15T21:36:22.083Z,101150.56
2022-09-15T21:38:50.457Z,101151.19
2022-09-15T21:41:20.800Z,101148.13
2022-09-15T21:43:48.319Z,101144.59
2022-09-15T21:46:18.277Z,101148.91
2022-09-15T21:48:47.245Z,101148.69
2022-09-15T21:51:15.511Z,101148.41
2022-09-15T21:53:42.358Z,101148.78
2022-09-15T21:56:10.513Z,101155.28
2022-09-15T21:58:42.640Z,101162.84
2022-09-15T22:01:19.272Z,101165.22
2022-09-15T22:03:53.801Z,101164.97
2022-09-15T22:06:22.562Z,101161.94
2022-09-15T22:08:48.966Z,101165.97
2022-09-15T22:11:15.396Z,101165.69
2022-09-15T22:13:43.627Z,101165.69
2022-09-15T22:16:16.691Z,101166.75
2022-09-15T22:18:43.539Z,101166.59
2022-09-15T22:21:16.727Z,101159.63
2022-09-15T22:23:45.256Z,101156.00
2022-09-15T22:26:14.511Z,101153.06
2022-09-15T22:28:41.355Z,101151.50
2022-09-15T22:31:10.790Z,101141.13
2022-09-15T22:33:39.499Z,101134.28
2022-09-15T22:36:09.697Z,101135.00
2022-09-15T22:38:36.192Z,101123.38
2022-09-15T22:41:08.987Z,101125.75
2022-09-15T22:43:36.740Z,101125.38
2022-09-15T22:46:03.563Z,101122.38
2022-09-15T22:48:30.089Z,101129.13
2022-09-15T22:50:56.822Z,101126.13
2022-09-15T22:53:23.516Z,101121.38
2022-09-15T22:55:50.565Z,101124.53
2022-09-15T22:58:16.990Z,101122.34
2022-09-15T23:00:43.518Z,101135.00
2022-09-15T23:03:11.460Z,101128.69
2022-09-15T23:05:38.231Z,101128.47
2022-09-15T23:08:04.743Z,101129.88
2022-09-15T23:10:31.395Z,101130.03
2022-09-15T23:12:59.012Z,101132.53
2022-09-15T23:15:25.487Z,101137.13
2022-09-15T23:17:52.187Z,101143.09
2022-09-15T23:20:18.984Z,101143.72
2022-09-15T23:22:45.559Z,101139.00
2022-09-15T23:25:12.011Z,101135.38
2022-09-15T23:27:38.417Z,101133.25
2022-09-15T23:30:05.285Z,101131.25
2022-09-15T23:32:31.725Z,101129.69
2022-09-15T23:34:58.167Z,101124.13
2022-09-15T23:37:24.696Z,101119.94
2022-09-15T23:39:52.303Z,101120.13
2022-09-15T23:42:19.195Z,101122.56
2022-09-15T23:44:46.120Z,101115.72
2022-09-15T23:47:12.551Z,101112.00
2022-09-15T23:49:39.130Z,101117.53
2022-09-15T23:52:05.613Z,101116.03
2022-09-15T23:54:32.081Z,101111.28
2022-09-15T23:56:58.560Z,101115.53
2022-09-15T23:59:25.197Z,101117.53
